Marcus, South Dakota
Current Conditions -  °F | °C
As of 9:58 PM on Monday 20 Oct 2014 (Local Time) from KRCA Reporting Station
Clear Clear  
Wind Chill: 61°   Ceiling: Unl
Heat Index: 61°   Visibility: 10mi
Dew Point: 44°   Wind: 9mph
Humidity: 55%   Direction: 180°S
Pressure: 29.89"   Gusts: NA
Location:  44.4145°N, 103.17°W
Report Text: KRCA 210358Z AUTO 18008KT 10SM CLR 16/07 A2989 RMK AO2 SLPNO T01600069 $
Loading
Personal Weather Stations






























Interactive Weather Map
Tropical Storm Tracking
New forecast layout! Learn more

10-Day Weather Forecast

Advertisements
Track Severe Weather on mobile